Time;durP1;ratioP1;P1;durP2;ratioP2;P2;SDS_P1;SDS_P2;PMS_P1;PMS_P2;Temp;Humidity;BMP_temperature;BMP_pressure;BME280_temperature;BME280_humidity;BME280_pressure;Samples;Min_cycle;Max_cycle;Signal;HPM_P1;HPM_P2
2024/04/20 00:00:11;;;;;;;2.90;1.20;;;;;;;5.57;72.18;95711.16;5358138;26;20270;-70
2024/04/20 00:02:37;;;;;;;1.90;1.20;;;;;;;5.45;72.81;95715.03;5357859;26;20551;-69
2024/04/20 00:05:02;;;;;;;3.77;1.67;;;;;;;5.59;73.23;95718.00;5370983;26;20575;-69
2024/04/20 00:07:28;;;;;;;1.83;1.23;;;;;;;5.65;72.78;95710.00;5367795;26;20245;-69
2024/04/20 00:09:57;;;;;;;2.83;1.60;;;;;;;5.80;72.05;95711.19;5360417;26;20237;-69
2024/04/20 00:12:22;;;;;;;3.30;2.27;;;;;;;5.83;72.33;95710.22;5359593;26;20307;-69
2024/04/20 00:14:48;;;;;;;7.40;2.13;;;;;;;5.85;71.78;95706.66;5365780;26;20471;-69
2024/04/20 00:17:15;;;;;;;3.80;2.20;;;;;;;5.85;71.08;95708.41;5363881;26;20241;-69
2024/04/20 00:19:40;;;;;;;2.97;1.70;;;;;;;5.91;71.21;95705.59;5396826;26;20241;-69
2024/04/20 00:22:06;;;;;;;3.77;1.93;;;;;;;6.02;70.17;95695.63;5369128;26;20452;-69
2024/04/20 00:24:31;;;;;;;5.07;1.77;;;;;;;6.01;70.62;95704.38;5361535;26;20757;-69
2024/04/20 00:26:57;;;;;;;3.50;2.13;;;;;;;5.96;70.83;95701.09;5370858;26;20346;-69
2024/04/20 00:29:22;;;;;;;5.47;1.83;;;;;;;5.60;71.85;95703.22;5368543;26;20241;-68
2024/04/20 00:31:48;;;;;;;2.93;1.90;;;;;;;5.69;71.80;95705.50;5356833;26;20638;-70
2024/04/20 00:34:13;;;;;;;3.97;2.43;;;;;;;5.19;74.00;95714.16;5364131;26;20271;-68
2024/04/20 00:36:39;;;;;;;2.90;1.93;;;;;;;5.17;73.99;95715.13;5360857;26;20242;-70
2024/04/20 00:39:04;;;;;;;4.10;2.03;;;;;;;5.33;73.69;95716.31;5367030;26;20245;-70
2024/04/20 00:41:30;;;;;;;3.80;2.03;;;;;;;5.46;73.35;95729.75;5369893;26;20234;-70
2024/04/20 00:43:55;;;;;;;2.77;1.40;;;;;;;5.49;72.83;95727.03;5369127;26;20297;-68
2024/04/20 00:46:24;;;;;;;2.67;1.60;;;;;;;5.35;73.24;95732.72;5368967;26;20324;-70
2024/04/20 00:48:50;;;;;;;3.30;2.00;;;;;;;5.33;73.59;95739.72;5346114;26;20335;-70
2024/04/20 00:51:16;;;;;;;2.57;1.70;;;;;;;5.41;72.90;95736.84;5374455;26;20540;-69
2024/04/20 00:53:43;;;;;;;4.07;1.90;;;;;;;5.56;71.54;95741.53;5362521;26;20915;-69
2024/04/20 00:56:09;;;;;;;2.70;2.23;;;;;;;5.69;71.08;95729.81;5371524;26;20249;-69
2024/04/20 00:58:36;;;;;;;3.33;2.03;;;;;;;5.69;70.84;95722.00;5374349;26;20582;-70
2024/04/20 01:01:01;;;;;;;2.27;2.00;;;;;;;5.69;70.95;95723.72;5371549;26;20275;-70
2024/04/20 01:03:28;;;;;;;5.57;2.20;;;;;;;5.60;70.98;95732.72;5370672;26;20892;-70
2024/04/20 01:05:54;;;;;;;3.43;2.10;;;;;;;5.58;70.81;95731.09;5375824;26;20280;-70
2024/04/20 01:08:20;;;;;;;3.87;2.27;;;;;;;5.62;70.87;95727.44;5371906;26;20573;-70
2024/04/20 01:10:46;;;;;;;2.90;2.10;;;;;;;5.59;71.03;95727.56;5366703;26;20471;-70
2024/04/20 01:13:11;;;;;;;4.53;1.57;;;;;;;5.61;71.50;95736.19;5378070;26;20229;-70
2024/04/20 01:15:37;;;;;;;3.17;1.93;;;;;;;5.64;71.45;95726.50;5371097;26;20344;-69
2024/04/20 01:18:03;;;;;;;3.00;1.83;;;;;;;5.48;72.99;95730.53;5362145;26;20305;-69
2024/04/20 01:20:29;;;;;;;2.40;2.03;;;;;;;5.53;73.00;95741.66;5365101;26;20272;-69
2024/04/20 01:22:58;;;;;;;7.20;1.97;;;;;;;5.69;72.71;95744.56;5369357;26;20452;-69
2024/04/20 01:25:24;;;;;;;3.97;2.27;;;;;;;5.68;72.97;95743.72;5368324;26;20472;-70
2024/04/20 01:27:50;;;;;;;2.37;1.90;;;;;;;5.71;72.76;95754.00;5367898;26;20517;-69
2024/04/20 01:30:16;;;;;;;3.97;1.97;;;;;;;5.66;72.91;95745.50;5365163;26;20535;-69
2024/04/20 01:32:42;;;;;;;2.53;1.70;;;;;;;5.80;72.58;95744.19;5368713;26;20688;-69
2024/04/20 01:35:09;;;;;;;6.77;1.97;;;;;;;5.77;72.60;95746.91;5360601;26;20516;-68
2024/04/20 01:37:34;;;;;;;4.70;2.03;;;;;;;5.89;72.34;95741.25;5366067;26;20531;-70
2024/04/20 01:40:00;;;;;;;2.53;1.80;;;;;;;5.82;71.97;95751.03;5365337;26;20464;-70
2024/04/20 01:42:25;;;;;;;3.60;1.43;;;;;;;5.71;72.17;95751.41;5361672;26;20249;-69
2024/04/20 01:44:51;;;;;;;2.57;1.60;;;;;;;5.78;71.87;95749.44;5368377;26;20284;-70
2024/04/20 01:47:16;;;;;;;4.90;3.63;;;;;;;5.72;71.57;95747.91;5367888;26;20264;-69
2024/04/20 01:49:41;;;;;;;3.83;1.47;;;;;;;5.67;72.06;95752.44;5368429;26;21033;-69
2024/04/20 01:52:08;;;;;;;3.43;2.10;;;;;;;5.58;72.48;95746.69;5368168;26;20241;-69
2024/04/20 01:54:34;;;;;;;4.00;1.90;;;;;;;5.67;72.27;95744.63;5368122;26;20355;-69
2024/04/20 01:56:59;;;;;;;3.50;1.63;;;;;;;5.71;72.57;95751.41;5369264;26;20994;-69
2024/04/20 01:59:24;;;;;;;5.50;2.33;;;;;;;5.86;72.28;95749.19;5357959;26;20369;-69
2024/04/20 02:01:53;;;;;;;4.37;2.17;;;;;;;5.82;72.51;95747.59;5371298;26;20238;-70
2024/04/20 02:04:18;;;;;;;4.57;2.33;;;;;;;5.55;73.36;95750.25;5364490;26;20603;-70
2024/04/20 02:06:44;;;;;;;7.07;2.00;;;;;;;5.62;73.90;95749.16;5369250;26;20488;-69
2024/04/20 02:09:11;;;;;;;6.50;1.97;;;;;;;5.66;74.04;95755.94;5368820;26;20235;-69
2024/04/20 02:11:37;;;;;;;3.53;2.30;;;;;;;5.60;73.52;95745.75;5368499;26;20234;-69
2024/04/20 02:14:05;;;;;;;2.60;2.07;;;;;;;5.74;72.82;95742.66;5368701;26;20519;-70
2024/04/20 02:16:30;;;;;;;6.10;2.00;;;;;;;5.76;72.86;95739.97;5369223;26;20273;-69
2024/04/20 02:18:55;;;;;;;2.53;1.70;;;;;;;5.78;72.55;95733.81;5371460;26;20977;-69
2024/04/20 02:21:21;;;;;;;4.00;1.70;;;;;;;5.88;72.51;95742.13;5369455;26;20347;-69
2024/04/20 02:23:46;;;;;;;4.00;1.80;;;;;;;5.97;71.14;95744.44;5367387;26;21142;-69
2024/04/20 02:26:12;;;;;;;2.90;1.70;;;;;;;5.78;72.06;95740.78;5359468;26;20237;-70
2024/04/20 02:28:38;;;;;;;4.43;1.80;;;;;;;5.65;72.50;95743.81;5368407;26;20237;-69
2024/04/20 02:31:04;;;;;;;5.33;1.97;;;;;;;5.72;72.34;95744.47;5367149;26;20247;-69
2024/04/20 02:33:30;;;;;;;2.80;1.60;;;;;;;5.77;71.75;95739.94;5355499;26;20464;-69
2024/04/20 02:35:55;;;;;;;3.53;2.27;;;;;;;5.85;71.10;95737.06;5370930;26;20572;-69
2024/04/20 02:38:20;;;;;;;2.20;1.40;;;;;;;5.67;71.77;95751.56;5363429;26;20272;-70
2024/04/20 02:40:46;;;;;;;2.17;1.83;;;;;;;5.80;70.75;95741.59;5365166;26;20284;-69
2024/04/20 02:43:11;;;;;;;2.73;2.00;;;;;;;5.82;71.02;95753.63;5373093;26;21351;-69
2024/04/20 02:45:37;;;;;;;3.70;1.73;;;;;;;5.74;71.76;95742.66;5368641;26;20994;-68
2024/04/20 02:48:03;;;;;;;3.97;2.13;;;;;;;5.83;70.41;95741.47;5356845;26;20233;-71
2024/04/20 02:50:28;;;;;;;1.80;1.63;;;;;;;5.63;71.48;95755.19;5364007;26;20283;-69
2024/04/20 02:52:54;;;;;;;5.87;1.70;;;;;;;5.71;71.35;95753.16;5365608;26;20806;-70
2024/04/20 02:55:19;;;;;;;9.87;2.10;;;;;;;5.72;70.73;95750.50;5360953;26;20876;-69
2024/04/20 02:57:46;;;;;;;3.77;1.97;;;;;;;5.69;70.96;95750.63;5367506;26;20843;-70
2024/04/20 03:00:11;;;;;;;3.67;1.93;;;;;;;5.71;70.86;95760.97;5370771;26;20284;-68
2024/04/20 03:02:37;;;;;;;4.73;1.70;;;;;;;5.65;70.84;95759.44;5357374;26;20464;-69
2024/04/20 03:05:02;;;;;;;4.90;2.40;;;;;;;5.72;71.11;95768.75;5370648;26;20221;-69
2024/04/20 03:07:28;;;;;;;2.90;2.00;;;;;;;5.71;71.27;95774.00;5365598;26;20284;-70
2024/04/20 03:09:55;;;;;;;5.53;1.57;;;;;;;5.68;70.67;95763.69;5364898;26;20237;-69
2024/04/20 03:12:21;;;;;;;4.93;2.10;;;;;;;5.58;71.00;95768.38;5369686;26;20241;-68
2024/04/20 03:14:50;;;;;;;4.30;1.83;;;;;;;5.54;71.19;95771.97;5368884;26;20500;-68
2024/04/20 03:17:15;;;;;;;1.60;1.47;;;;;;;5.69;70.84;95776.66;5371140;26;20467;-69
2024/04/20 03:19:41;;;;;;;4.03;2.13;;;;;;;5.61;71.23;95780.44;5371322;26;20519;-69
2024/04/20 03:22:07;;;;;;;2.07;1.70;;;;;;;5.68;71.54;95789.72;5369942;26;20355;-69
2024/04/20 03:24:32;;;;;;;3.03;2.10;;;;;;;5.71;71.82;95794.81;5365013;26;20293;-69
2024/04/20 03:26:57;;;;;;;3.10;1.57;;;;;;;5.63;71.26;95789.03;5361076;26;20246;-69
2024/04/20 03:29:23;;;;;;;2.00;1.70;;;;;;;5.68;71.22;95794.94;5364704;26;20282;-69
2024/04/20 03:31:49;;;;;;;3.50;1.83;;;;;;;5.71;70.93;95800.88;5364278;26;20595;-68
2024/04/20 03:34:14;;;;;;;2.77;1.63;;;;;;;5.68;70.75;95800.13;5361256;26;20237;-69
2024/04/20 03:36:40;;;;;;;1.80;1.70;;;;;;;5.62;71.14;95805.53;5368848;26;20592;-69
2024/04/20 03:39:12;;;;;;;2.03;1.60;;;;;;;5.65;70.76;95803.69;5368606;26;20241;-69
2024/04/20 03:41:38;;;;;;;4.30;2.13;;;;;;;5.74;70.65;95810.34;5370039;26;20333;-69
2024/04/20 03:44:04;;;;;;;12.10;2.20;;;;;;;5.63;71.11;95805.50;5366924;26;20472;-69
2024/04/20 03:46:29;;;;;;;3.10;1.80;;;;;;;5.61;71.30;95814.25;5370274;26;21022;-69
2024/04/20 03:48:55;;;;;;;3.43;1.70;;;;;;;5.65;71.44;95815.88;5370308;26;20280;-69
2024/04/20 03:51:20;;;;;;;3.40;1.90;;;;;;;5.64;71.97;95820.19;5369448;26;20874;-69
2024/04/20 03:53:46;;;;;;;3.57;1.77;;;;;;;5.38;71.92;95815.00;5365623;26;20721;-69
2024/04/20 03:56:12;;;;;;;3.20;1.93;;;;;;;5.60;71.33;95815.16;5363808;26;20293;-69
2024/04/20 03:58:37;;;;;;;9.40;1.80;;;;;;;5.46;71.95;95816.47;5358908;26;20717;-69
2024/04/20 04:01:03;;;;;;;5.00;1.90;;;;;;;5.51;72.71;95818.94;5370197;26;20468;-68
2024/04/20 04:03:29;;;;;;;2.90;1.77;;;;;;;5.54;72.15;95834.44;5357735;26;20281;-68
2024/04/20 04:05:55;;;;;;;2.40;1.57;;;;;;;5.63;71.36;95817.66;5361221;26;20238;-68
2024/04/20 04:08:22;;;;;;;1.90;1.70;;;;;;;5.60;71.60;95830.75;5364311;26;20683;-68
2024/04/20 04:10:47;;;;;;;4.27;1.70;;;;;;;5.55;71.80;95825.75;5363493;26;20577;-69
2024/04/20 04:13:14;;;;;;;14.40;2.00;;;;;;;5.21;73.10;95837.22;5368081;26;20485;-69
2024/04/20 04:15:41;;;;;;;3.90;2.00;;;;;;;5.32;73.04;95842.09;5363176;26;20230;-69
2024/04/20 04:18:08;;;;;;;6.00;2.10;;;;;;;5.42;72.79;95845.25;5368216;26;20797;-69
2024/04/20 04:20:34;;;;;;;1.50;1.40;;;;;;;5.52;72.59;95850.09;5368875;26;20471;-69
2024/04/20 04:23:01;;;;;;;3.83;2.27;;;;;;;5.40;72.95;95847.03;5367973;26;20633;-69
2024/04/20 04:25:26;;;;;;;6.43;2.33;;;;;;;5.56;71.62;95848.25;5355902;26;20628;-69
2024/04/20 04:27:51;;;;;;;7.33;1.73;;;;;;;5.45;71.96;95853.78;5367889;26;20461;-68
2024/04/20 04:30:17;;;;;;;2.43;1.80;;;;;;;5.54;71.92;95857.84;5369166;26;20237;-69
2024/04/20 04:32:42;;;;;;;2.83;1.80;;;;;;;5.49;71.91;95862.38;5369583;26;20602;-69
2024/04/20 04:35:08;;;;;;;4.30;1.80;;;;;;;5.50;72.26;95861.44;5365943;26;20237;-69
2024/04/20 04:37:33;;;;;;;2.80;1.83;;;;;;;5.54;72.05;95865.66;5368959;26;20276;-69
2024/04/20 04:39:59;;;;;;;2.83;2.23;;;;;;;5.49;72.48;95870.16;5369187;26;20237;-69
2024/04/20 04:42:26;;;;;;;2.30;1.97;;;;;;;5.55;71.88;95869.97;5368259;26;20245;-69
2024/04/20 04:44:52;;;;;;;6.40;2.00;;;;;;;5.70;71.87;95861.66;5369039;26;20412;-68
2024/04/20 04:47:17;;;;;;;2.67;1.73;;;;;;;5.72;71.29;95859.00;5361566;26;20650;-69
2024/04/20 04:49:43;;;;;;;3.70;2.20;;;;;;;5.67;72.02;95858.28;5370250;26;20552;-69
2024/04/20 04:52:08;;;;;;;4.23;1.93;;;;;;;5.69;71.41;95866.91;5369743;26;20399;-69
2024/04/20 04:54:33;;;;;;;5.77;2.87;;;;;;;5.63;70.81;95875.78;5376837;26;20227;-69
2024/04/20 04:56:59;;;;;;;6.30;2.37;;;;;;;5.64;72.29;95885.28;5373628;26;20347;-68
2024/04/20 04:59:24;;;;;;;13.23;2.77;;;;;;;5.64;72.51;95877.47;5374468;26;20241;-68
2024/04/20 05:01:51;;;;;;;4.03;2.00;;;;;;;5.64;72.33;95889.63;5365511;26;20291;-67
2024/04/20 05:04:17;;;;;;;4.33;2.10;;;;;;;5.67;71.32;95902.53;5373206;26;20573;-68
2024/04/20 05:06:42;;;;;;;6.53;2.80;;;;;;;5.70;71.21;95898.09;5360956;26;20457;-68
2024/04/20 05:09:08;;;;;;;5.10;2.40;;;;;;;5.68;71.61;95901.66;5361257;26;20303;-68
2024/04/20 05:11:34;;;;;;;3.27;2.10;;;;;;;5.69;71.22;95906.81;5369021;26;20721;-68
2024/04/20 05:13:59;;;;;;;6.27;1.97;;;;;;;5.90;70.66;95899.19;5368977;26;20541;-68
2024/04/20 05:16:24;;;;;;;6.10;2.20;;;;;;;5.75;71.03;95895.34;5363193;26;20823;-67
2024/04/20 05:18:52;;;;;;;2.83;2.13;;;;;;;5.65;71.33;95907.81;5363203;26;20297;-68
2024/04/20 05:21:18;;;;;;;6.80;2.43;;;;;;;5.71;70.26;95912.81;5370307;26;20233;-68
2024/04/20 05:23:43;;;;;;;4.00;2.23;;;;;;;5.75;70.87;95916.19;5368533;26;20448;-68
2024/04/20 05:26:08;;;;;;;6.67;2.67;;;;;;;5.63;71.25;95907.00;5369640;26;20713;-67
2024/04/20 05:28:34;;;;;;;8.10;3.00;;;;;;;5.59;71.57;95920.16;5361374;26;20331;-68
2024/04/20 05:30:59;;;;;;;4.73;2.20;;;;;;;5.44;71.20;95931.94;5364077;26;20272;-69
2024/04/20 05:33:24;;;;;;;7.23;2.07;;;;;;;5.66;70.68;95929.47;5340230;26;20245;-67
2024/04/20 05:35:50;;;;;;;6.60;1.93;;;;;;;5.68;70.51;95927.69;5345506;26;20289;-67
2024/04/20 05:38:15;;;;;;;3.80;2.30;;;;;;;5.70;70.45;95931.09;5335504;26;20238;-66
2024/04/20 05:40:41;;;;;;;3.60;2.53;;;;;;;5.75;70.37;95942.22;5334559;26;20294;-68
2024/04/20 05:43:06;;;;;;;2.83;2.23;;;;;;;5.86;69.45;95947.09;5351109;26;20242;-68
2024/04/20 05:45:33;;;;;;;3.93;2.40;;;;;;;5.86;69.75;95953.13;5351184;26;20230;-68
2024/04/20 05:47:59;;;;;;;4.43;2.40;;;;;;;5.72;70.41;95950.97;5370293;26;20237;-68
2024/04/20 05:50:25;;;;;;;3.83;2.70;;;;;;;5.94;69.71;95966.78;5369461;26;20794;-68
2024/04/20 05:52:50;;;;;;;8.00;1.93;;;;;;;5.85;69.65;95959.22;5369209;26;20241;-68
2024/04/20 05:55:15;;;;;;;8.37;2.50;;;;;;;5.77;70.41;95966.44;5368580;26;20270;-69
2024/04/20 05:57:41;;;;;;;4.03;2.90;;;;;;;5.86;70.60;95968.75;5370045;26;20241;-68
2024/04/20 06:00:07;;;;;;;3.93;2.30;;;;;;;5.81;70.74;95975.00;5363379;26;20284;-68
2024/04/20 06:02:35;;;;;;;7.30;2.30;;;;;;;5.82;70.67;95974.97;5355666;26;20349;-68
2024/04/20 06:05:03;;;;;;;2.80;2.43;;;;;;;5.93;70.45;95983.28;5362565;26;21043;-68
2024/04/20 06:07:31;;;;;;;5.20;2.80;;;;;;;5.97;70.66;95984.06;5363711;26;20629;-68
2024/04/20 06:09:56;;;;;;;2.90;2.30;;;;;;;6.10;70.00;95990.56;5368982;26;20698;-68
2024/04/20 06:12:22;;;;;;;4.33;3.10;;;;;;;6.03;70.25;95994.28;5368716;26;20463;-68
2024/04/20 06:14:48;;;;;;;5.20;2.53;;;;;;;6.02;70.12;96005.59;5362702;26;20229;-68
2024/04/20 06:17:14;;;;;;;5.00;2.70;;;;;;;6.04;69.61;96006.41;5356085;26;20715;-68
2024/04/20 06:19:40;;;;;;;5.83;2.67;;;;;;;6.12;69.71;96006.16;5366651;26;20486;-68
2024/04/20 06:22:05;;;;;;;4.60;2.60;;;;;;;5.82;71.22;96005.34;5368434;26;20455;-68
2024/04/20 06:24:31;;;;;;;9.97;2.70;;;;;;;6.00;71.64;96010.03;5366777;26;20234;-68
2024/04/20 06:26:56;;;;;;;8.83;2.43;;;;;;;6.14;69.67;96019.97;5362921;26;20277;-68
2024/04/20 06:29:23;;;;;;;2.63;2.40;;;;;;;5.97;70.49;96014.47;5369423;26;20256;-67
2024/04/20 06:31:50;;;;;;;3.67;2.33;;;;;;;5.84;70.62;96019.19;5375309;26;20253;-68
2024/04/20 06:34:15;;;;;;;9.83;3.03;;;;;;;5.96;70.31;96018.81;5375259;26;20459;-67
2024/04/20 06:36:41;;;;;;;2.33;2.13;;;;;;;5.94;69.73;96031.03;5377613;26;20502;-68
2024/04/20 06:39:07;;;;;;;7.03;2.23;;;;;;;6.04;70.45;96032.44;5369363;26;20818;-68
2024/04/20 06:41:32;;;;;;;8.40;2.67;;;;;;;5.82;71.57;96036.59;5379432;26;20234;-68
2024/04/20 06:43:59;;;;;;;2.73;1.80;;;;;;;5.96;70.51;96038.81;5379169;26;20506;-67
2024/04/20 06:46:28;;;;;;;2.70;2.37;;;;;;;6.18;69.87;96047.63;5374089;26;20260;-67
2024/04/20 06:48:54;;;;;;;5.37;1.80;;;;;;;6.24;68.69;96049.22;5352713;26;20529;-68
2024/04/20 06:51:20;;;;;;;6.07;2.40;;;;;;;6.46;67.69;96047.59;5371674;26;20444;-68
2024/04/20 06:53:45;;;;;;;2.70;2.10;;;;;;;6.72;66.64;96048.47;5367176;26;21011;-68
2024/04/20 06:56:12;;;;;;;5.93;2.27;;;;;;;6.79;65.97;96052.56;5367035;26;20432;-68
2024/04/20 06:58:41;;;;;;;4.30;2.60;;;;;;;6.98;65.96;96058.00;5379342;26;20260;-67
2024/04/20 07:01:07;;;;;;;3.00;2.30;;;;;;;6.86;65.51;96056.66;5379662;26;20448;-67
2024/04/20 07:03:34;;;;;;;3.47;2.03;;;;;;;6.82;66.32;96062.88;5363043;26;20551;-68
2024/04/20 07:06:00;;;;;;;4.13;2.60;;;;;;;6.83;65.91;96064.59;5380051;26;20498;-68
2024/04/20 07:08:27;;;;;;;2.80;2.13;;;;;;;6.77;65.90;96077.84;5379399;26;20594;-67
2024/04/20 07:10:54;;;;;;;3.70;2.10;;;;;;;6.68;65.94;96078.16;5380369;26;20667;-67
2024/04/20 07:13:20;;;;;;;6.40;2.70;;;;;;;6.66;65.50;96087.78;5380357;26;20517;-67
2024/04/20 07:15:50;;;;;;;6.77;3.17;;;;;;;6.74;66.14;96096.22;5372660;26;20461;-68
2024/04/20 07:18:15;;;;;;;4.10;3.00;;;;;;;6.89;64.90;96087.84;5371656;26;20230;-69
2024/04/20 07:20:40;;;;;;;4.23;2.33;;;;;;;7.27;63.14;96090.88;5371293;26;20460;-69
2024/04/20 07:23:06;;;;;;;4.97;3.90;;;;;;;8.10;61.90;96085.16;5371075;26;20331;-70
2024/04/20 07:25:31;;;;;;;3.00;2.00;;;;;;;8.52;60.21;96091.38;5355658;26;20795;-69
2024/04/20 07:27:57;;;;;;;2.67;2.03;;;;;;;8.69;59.83;96095.03;5362549;26;20335;-69
2024/04/20 07:30:22;;;;;;;2.30;2.10;;;;;;;8.95;56.41;96085.19;5369678;26;20237;-69
2024/04/20 07:32:47;;;;;;;3.07;2.73;;;;;;;9.73;55.72;96089.66;5369248;26;20276;-68
2024/04/20 07:35:13;;;;;;;4.13;2.27;;;;;;;9.99;55.53;96086.72;5369327;26;20976;-69
2024/04/20 07:37:38;;;;;;;2.90;2.47;;;;;;;10.55;52.99;96088.47;5370299;26;20369;-69
2024/04/20 07:40:06;;;;;;;6.03;2.20;;;;;;;11.30;51.54;96076.81;5370149;26;20241;-68
2024/04/20 07:42:32;;;;;;;4.20;2.30;;;;;;;10.96;50.97;96090.78;5369905;26;20241;-68
2024/04/20 07:44:57;;;;;;;3.30;2.43;;;;;;;10.20;52.35;96088.34;5362161;26;20511;-70
2024/04/20 07:47:22;;;;;;;5.30;2.50;;;;;;;9.88;52.03;96095.94;5376274;26;20285;-70
2024/04/20 07:49:48;;;;;;;2.27;1.97;;;;;;;9.17;53.33;96113.09;5374703;26;20280;-70
2024/04/20 07:52:14;;;;;;;2.83;1.57;;;;;;;9.77;53.26;96119.16;5371212;26;20721;-67
2024/04/20 07:54:39;;;;;;;8.00;1.80;;;;;;;10.04;51.04;96117.06;5370284;26;20701;-67
2024/04/20 07:57:04;;;;;;;2.87;1.90;;;;;;;9.61;53.13;96131.25;5371098;26;20229;-69
2024/04/20 07:59:30;;;;;;;1.93;1.70;;;;;;;9.91;60.72;96124.63;5370130;26;20259;-66
2024/04/20 08:01:56;;;;;;;3.10;2.63;;;;;;;10.87;60.40;96121.00;5364301;26;20245;-66
2024/04/20 08:04:22;;;;;;;6.30;2.83;;;;;;;11.66;53.80;96126.56;5369057;26;20411;-66
2024/04/20 08:06:47;;;;;;;4.33;2.03;;;;;;;12.49;53.31;96122.09;5364229;26;21023;-66
2024/04/20 08:09:12;;;;;;;3.97;1.90;;;;;;;10.60;49.91;96126.66;5364556;26;20912;-66
2024/04/20 08:11:38;;;;;;;2.80;1.93;;;;;;;9.93;52.36;96135.91;5355007;26;20281;-67
2024/04/20 08:14:03;;;;;;;7.03;2.20;;;;;;;9.42;53.13;96134.66;5369170;26;20601;-66
2024/04/20 08:16:29;;;;;;;2.93;1.90;;;;;;;8.97;53.21;96140.94;5365289;26;20284;-66
2024/04/20 08:18:54;;;;;;;3.53;2.10;;;;;;;8.88;54.25;96138.72;5366908;26;20267;-66
2024/04/20 08:21:20;;;;;;;2.80;2.00;;;;;;;8.67;54.53;96149.16;5367680;26;20274;-68
2024/04/20 08:23:46;;;;;;;8.00;2.33;;;;;;;8.83;52.57;96151.13;5354480;26;20233;-66
2024/04/20 08:26:12;;;;;;;3.27;1.80;;;;;;;9.03;53.59;96153.81;5366655;26;21049;-67
2024/04/20 08:28:37;;;;;;;1.90;1.60;;;;;;;9.11;52.55;96151.69;5368182;26;20926;-66
2024/04/20 08:31:03;;;;;;;6.60;1.73;;;;;;;8.66;51.50;96154.44;5369519;26;20504;-66
2024/04/20 08:33:28;;;;;;;4.10;3.70;;;;;;;8.71;53.02;96156.88;5358804;26;20461;-67
2024/04/20 08:35:54;;;;;;;4.00;1.77;;;;;;;8.42;52.77;96156.28;5377002;26;20354;-66
2024/04/20 08:38:19;;;;;;;2.07;1.80;;;;;;;8.60;53.37;96166.03;5378934;26;20229;-68
2024/04/20 08:40:47;;;;;;;4.97;1.83;;;;;;;8.47;53.49;96172.63;5380057;26;20383;-66
2024/04/20 08:43:14;;;;;;;7.80;2.10;;;;;;;8.47;53.74;96170.03;5358127;26;20238;-67
2024/04/20 08:45:42;;;;;;;5.13;2.50;;;;;;;8.63;54.53;96175.50;5377683;26;21095;-67
2024/04/20 08:48:13;;;;;;;3.57;2.20;;;;;;;8.44;53.63;96184.06;5361861;26;20453;-67
2024/04/20 08:50:38;;;;;;;3.23;1.90;;;;;;;8.40;52.57;96179.88;5362788;26;20513;-68
2024/04/20 08:53:05;;;;;;;9.07;2.20;;;;;;;9.61;66.76;96186.25;5368478;26;20969;-67
2024/04/20 08:55:32;;;;;;;2.63;2.30;;;;;;;9.32;49.38;96180.50;5367581;26;20276;-68
2024/04/20 08:57:58;;;;;;;2.20;1.60;;;;;;;8.75;50.18;96192.47;5367952;26;21472;-68
2024/04/20 09:00:28;;;;;;;4.50;1.93;;;;;;;8.58;49.09;96187.91;5367001;26;20467;-67
2024/04/20 09:02:55;;;;;;;2.17;1.80;;;;;;;8.35;51.13;96197.47;5365721;26;20480;-66
2024/04/20 09:05:21;;;;;;;2.57;1.60;;;;;;;8.25;50.76;96198.72;5366957;26;20558;-68
2024/04/20 09:07:46;;;;;;;5.57;1.80;;;;;;;8.37;52.50;96208.72;5366689;26;20551;-68
2024/04/20 09:10:11;;;;;;;3.67;2.30;;;;;;;8.51;53.37;96207.38;5353504;26;20779;-69
2024/04/20 09:12:37;;;;;;;3.87;1.80;;;;;;;8.49;51.81;96207.44;5371341;26;20275;-69
2024/04/20 09:15:07;;;;;;;4.17;1.90;;;;;;;8.12;52.13;96215.78;5360318;26;20272;-68
2024/04/20 09:17:33;;;;;;;3.10;1.50;;;;;;;8.19;51.18;96209.41;5340501;26;20348;-68
2024/04/20 09:19:59;;;;;;;4.57;1.83;;;;;;;8.17;51.09;96221.69;5364648;26;21340;-67
2024/04/20 09:22:25;;;;;;;3.47;1.20;;;;;;;8.16;50.64;96225.22;5362972;26;20466;-68
2024/04/20 09:25:03;;;;;;;2.30;1.53;;;;;;;8.25;50.10;96227.50;5364491;26;20467;-67
2024/04/20 09:27:28;;;;;;;2.33;1.80;;;;;;;8.32;50.35;96228.13;5368294;26;20284;-68
2024/04/20 09:29:54;;;;;;;4.10;2.07;;;;;;;8.24;50.83;96231.00;5359920;26;20465;-68
2024/04/20 09:32:27;;;;;;;2.40;1.73;;;;;;;8.18;51.75;96231.25;5364137;26;20605;-67
2024/04/20 09:34:53;;;;;;;2.37;2.13;;;;;;;8.33;51.18;96235.03;5368501;26;20230;-67
2024/04/20 09:37:20;;;;;;;2.57;1.60;;;;;;;8.39;49.88;96245.28;5359254;26;20858;-68
2024/04/20 09:39:45;;;;;;;2.93;2.67;;;;;;;8.48;49.39;96234.50;5368950;26;20515;-68
2024/04/20 09:42:11;;;;;;;2.70;2.13;;;;;;;8.55;48.43;96232.47;5359093;26;20471;-68
2024/04/20 09:44:40;;;;;;;2.70;1.80;;;;;;;8.69;49.94;96231.06;5370907;26;21249;-71
2024/04/20 09:47:05;;;;;;;4.53;2.63;;;;;;;8.68;50.14;96237.19;5378144;26;20241;-69
2024/04/20 09:49:32;;;;;;;4.33;2.20;;;;;;;8.58;49.82;96240.22;5377519;26;20572;-69
2024/04/20 09:52:14;;;;;;;2.60;1.63;;;;;;;8.36;51.42;96241.03;5372080;26;20357;-69
2024/04/20 09:54:48;;;;;;;6.20;1.90;;;;;;;8.46;51.29;96241.56;5362751;26;20460;-70
2024/04/20 09:57:15;;;;;;;5.00;1.90;;;;;;;8.61;50.93;96245.34;5369961;26;20729;-68
2024/04/20 09:59:41;;;;;;;5.00;2.13;;;;;;;8.67;49.69;96245.94;5378545;26;21105;-70
2024/04/20 10:02:09;;;;;;;3.50;1.80;;;;;;;8.51;50.33;96246.59;5377650;26;20502;-67
2024/04/20 10:04:35;;;;;;;2.43;2.23;;;;;;;8.62;50.72;96260.09;5342578;26;20520;-69
2024/04/20 10:07:01;;;;;;;2.37;2.17;;;;;;;8.73;48.14;96257.09;5341226;26;20771;-69
2024/04/20 10:09:27;;;;;;;3.47;1.80;;;;;;;8.52;48.48;96254.38;5375797;26;20226;-70
2024/04/20 10:11:55;;;;;;;1.90;1.47;;;;;;;8.45;48.04;96248.53;5374642;26;20459;-67
2024/04/20 10:14:20;;;;;;;3.00;1.40;;;;;;;8.39;47.55;96255.75;5400560;26;20249;-69
2024/04/20 10:16:46;;;;;;;3.77;1.90;;;;;;;8.22;48.59;96257.22;5373916;26;20548;-70
2024/04/20 10:19:11;;;;;;;2.20;1.60;;;;;;;8.16;50.03;96260.03;5371875;26;20237;-69
2024/04/20 10:21:39;;;;;;;3.00;1.80;;;;;;;8.41;49.58;96256.53;5367079;26;20234;-69
2024/04/20 10:24:05;;;;;;;3.20;1.80;;;;;;;8.47;50.44;96259.78;5368820;26;20272;-69
2024/04/20 10:26:31;;;;;;;8.13;2.27;;;;;;;8.53;49.83;96258.72;5353130;26;20549;-68
2024/04/20 10:29:06;;;;;;;2.60;1.97;;;;;;;8.66;50.62;96264.31;5354389;26;20456;-69
2024/04/20 10:31:32;;;;;;;1.87;1.47;;;;;;;8.78;50.80;96263.00;5365586;26;20233;-68
2024/04/20 10:33:57;;;;;;;2.67;1.73;;;;;;;8.56;49.55;96262.97;5367127;26;20463;-69
2024/04/20 10:36:26;;;;;;;3.77;2.30;;;;;;;8.74;49.82;96264.00;5366886;26;20245;-69
2024/04/20 10:39:05;;;;;;;3.50;1.80;;;;;;;8.65;49.67;96270.47;5371120;26;20237;-70
2024/04/20 10:41:36;;;;;;;2.67;1.93;;;;;;;8.60;49.57;96275.03;5369964;26;20463;-70
2024/04/20 10:44:13;;;;;;;2.60;1.60;;;;;;;8.62;49.74;96279.28;5370378;26;21313;-68
2024/04/20 10:46:52;;;;;;;2.73;2.10;;;;;;;8.65;49.54;96273.09;5368564;26;20595;-68
2024/04/20 10:49:18;;;;;;;4.03;2.03;;;;;;;8.67;50.20;96279.13;5364905;26;21078;-69
2024/04/20 10:51:51;;;;;;;3.07;2.07;;;;;;;8.65;49.72;96280.94;5369105;26;20471;-67
2024/04/20 10:54:20;;;;;;;3.13;2.00;;;;;;;8.64;50.01;96277.44;5365898;26;20241;-69
2024/04/20 10:56:46;;;;;;;2.40;2.03;;;;;;;8.60;49.14;96280.25;5369186;26;20529;-70
2024/04/20 10:59:12;;;;;;;2.80;2.23;;;;;;;8.45;49.13;96273.81;5371147;26;20716;-68
2024/04/20 11:01:44;;;;;;;5.10;2.33;;;;;;;8.51;49.96;96284.06;5369378;26;20467;-68
2024/04/20 11:04:11;;;;;;;2.00;1.80;;;;;;;8.57;49.55;96283.81;5374431;26;20649;-70
2024/04/20 11:06:36;;;;;;;4.03;2.37;;;;;;;8.72;48.83;96289.38;5363435;26;20504;-69
2024/04/20 11:09:02;;;;;;;6.90;2.30;;;;;;;8.90;50.07;96286.06;5370443;26;20456;-70
2024/04/20 11:11:28;;;;;;;5.10;1.97;;;;;;;8.67;49.12;96290.44;5361213;26;20304;-69
2024/04/20 11:14:00;;;;;;;7.40;2.13;;;;;;;8.79;49.17;96290.88;5352521;26;20527;-68
2024/04/20 11:16:27;;;;;;;11.63;2.50;;;;;;;8.95;47.63;96288.50;5332939;26;20304;-70
2024/04/20 11:18:52;;;;;;;4.10;2.20;;;;;;;9.09;47.66;96284.44;5331532;26;21428;-71
2024/04/20 11:21:18;;;;;;;10.07;3.40;;;;;;;9.48;47.06;96288.13;5372521;26;20517;-67
2024/04/20 11:23:44;;;;;;;3.63;2.40;;;;;;;9.48;46.67;96286.34;5347518;26;20317;-70
2024/04/20 11:26:09;;;;;;;5.03;2.60;;;;;;;10.01;46.42;96278.88;5352164;26;22040;-69
2024/04/20 11:28:35;;;;;;;3.00;2.40;;;;;;;10.19;46.49;96272.84;5376820;26;20229;-68
2024/04/20 11:31:01;;;;;;;2.80;1.97;;;;;;;10.09;43.80;96276.78;5372437;26;20264;-68
2024/04/20 11:33:27;;;;;;;1.93;1.67;;;;;;;9.70;44.75;96277.56;5376911;26;20544;-70
2024/04/20 11:35:53;;;;;;;2.97;1.60;;;;;;;9.66;45.61;96281.22;5351691;26;20243;-69